Time;durP1;ratioP1;P1;durP2;ratioP2;P2;SDS_P1;SDS_P2;PMS_P1;PMS_P2;Temp;Humidity;BMP_temperature;BMP_pressure;BME280_temperature;BME280_humidity;BME280_pressure;Samples;Min_cycle;Max_cycle;Signal;HPM_P1;HPM_P2
2021/04/08 00:02:06;;;;;;;4.93;1.80;;;;;;;;;;4996174;28;20425;-77
2021/04/08 00:04:32;;;;;;;1.80;1.33;;;-1.00;99.90;;;;;;4996370;28;20186;-77
2021/04/08 00:06:58;;;;;;;1.67;1.33;;;;;;;;;;4996140;28;20434;-77
2021/04/08 00:09:24;;;;;;;2.30;1.77;;;-1.00;99.90;;;;;;4995922;28;20183;-77
2021/04/08 00:11:51;;;;;;;1.63;1.53;;;-0.90;99.90;;;;;;4995885;28;20203;-77
2021/04/08 00:14:17;;;;;;;7.93;1.50;;;-1.00;99.90;;;;;;4995707;28;20426;-77
2021/04/08 00:16:42;;;;;;;2.33;1.53;;;-1.00;99.90;;;;;;4994779;28;20423;-77
2021/04/08 00:19:09;;;;;;;2.87;2.00;;;0.20;99.90;;;;;;4995827;28;20688;-77
2021/04/08 00:21:35;;;;;;;2.80;1.80;;;;;;;;;;4995650;28;20182;-77
2021/04/08 00:24:01;;;;;;;2.53;1.53;;;-0.90;99.90;;;;;;4995498;28;20728;-77
2021/04/08 00:26:27;;;;;;;2.30;1.20;;;-0.90;99.90;;;;;;4994199;28;20446;-77
2021/04/08 00:28:53;;;;;;;4.90;1.70;;;-0.90;99.90;;;;;;4994205;28;20603;-77
2021/04/08 00:31:18;;;;;;;2.60;1.73;;;-0.20;99.90;;;;;;4995313;28;20690;-77
2021/04/08 00:33:44;;;;;;;2.13;1.13;;;-0.90;99.90;;;;;;4995426;28;20172;-77
2021/04/08 00:36:09;;;;;;;3.90;1.60;;;-0.80;99.90;;;;;;4993889;28;20207;-77
2021/04/08 00:38:35;;;;;;;1.73;1.30;;;-0.80;99.90;;;;;;4995303;28;20293;-77
2021/04/08 00:41:01;;;;;;;4.57;1.63;;;-0.80;99.90;;;;;;4995232;28;20176;-77
2021/04/08 00:43:27;;;;;;;2.37;1.40;;;-0.80;99.90;;;;;;4995346;28;20175;-77
2021/04/08 00:45:53;;;;;;;1.30;1.20;;;-0.80;99.90;;;;;;4994925;28;20958;-77
2021/04/08 00:48:19;;;;;;;4.43;1.80;;;-0.70;99.90;;;;;;4995102;28;20282;-77
2021/04/08 00:50:44;;;;;;;2.87;1.63;;;-0.70;99.90;;;;;;4993775;28;20213;-77
2021/04/08 00:53:21;;;;;;;3.37;2.07;;;-0.70;99.90;;;;;;4995171;28;20172;-77
2021/04/08 00:55:52;;;;;;;4.00;1.70;;;-0.70;99.90;;;;;;4994876;28;20255;-77
2021/04/08 00:58:19;;;;;;;3.10;2.00;;;-0.70;99.90;;;;;;4993793;28;20515;-77
2021/04/08 01:00:46;;;;;;;5.47;1.50;;;-0.70;99.90;;;;;;4995019;28;20807;-77
2021/04/08 01:03:12;;;;;;;3.73;1.60;;;-0.70;99.90;;;;;;4994827;28;20477;-77
2021/04/08 01:05:38;;;;;;;2.37;1.80;;;-0.70;99.90;;;;;;4994697;28;20952;-77
2021/04/08 01:08:05;;;;;;;2.90;1.50;;;-0.70;99.90;;;;;;4994710;28;20443;-77
2021/04/08 01:10:31;;;;;;;3.73;2.13;;;-0.70;99.90;;;;;;4993338;28;20467;-77
2021/04/08 01:13:05;;;;;;;1.70;1.43;;;-0.70;99.90;;;;;;4994615;28;20979;-77
2021/04/08 01:15:31;;;;;;;2.37;1.70;;;-0.70;99.90;;;;;;4994460;28;20403;-77
2021/04/08 01:18:08;;;;;;;3.17;1.93;;;-0.70;99.90;;;;;;4993310;28;20444;-77
2021/04/08 01:20:54;;;;;;;3.50;1.97;;;-0.60;99.90;;;;;;4994815;28;20723;-77
2021/04/08 01:23:20;;;;;;;5.27;1.90;;;;;;;;;;4994455;28;20423;-77
2021/04/08 01:26:08;;;;;;;4.03;2.00;;;-0.60;99.90;;;;;;4993047;28;20964;-77
2021/04/08 01:28:39;;;;;;;6.27;1.87;;;-0.70;99.90;;;;;;4992935;28;20178;-77
2021/04/08 01:31:08;;;;;;;2.77;1.73;;;-0.60;99.90;;;;;;4993104;28;20484;-77
2021/04/08 01:33:40;;;;;;;3.53;1.50;;;-0.60;99.90;;;;;;4994212;28;20419;-77
2021/04/08 01:36:09;;;;;;;3.00;1.57;;;-0.60;99.90;;;;;;4994132;28;20485;-77
2021/04/08 01:38:49;;;;;;;1.50;1.37;;;-0.60;99.90;;;;;;4992993;28;20450;-77
2021/04/08 01:41:19;;;;;;;2.87;1.40;;;-0.50;99.90;;;;;;4994544;28;20395;-77
2021/04/08 01:43:46;;;;;;;2.27;1.63;;;-0.50;99.90;;;;;;5025616;28;20414;-77
2021/04/08 01:46:15;;;;;;;5.20;1.70;;;-0.50;99.90;;;;;;4993917;28;20516;-77
2021/04/08 01:48:45;;;;;;;1.27;1.17;;;-0.50;99.90;;;;;;4994099;28;20415;-77
2021/04/08 01:51:11;;;;;;;1.30;1.20;;;-0.50;99.90;;;;;;4992741;28;20463;-77
2021/04/08 01:54:14;;;;;;;3.07;1.10;;;-0.40;99.90;;;;;;4993956;28;20411;-77
2021/04/08 01:56:41;;;;;;;1.30;1.00;;;-0.40;99.90;;;;;;4956339;28;20554;-77
2021/04/08 01:59:10;;;;;;;3.20;2.00;;;-0.40;99.90;;;;;;4989819;28;20431;-77
2021/04/08 02:01:36;;;;;;;1.20;1.10;;;-0.40;99.90;;;;;;4993953;28;20853;-77
2021/04/08 02:04:04;;;;;;;2.57;1.20;;;-0.40;99.90;;;;;;4993775;28;20490;-77
2021/04/08 02:06:31;;;;;;;2.00;1.20;;;-0.40;99.90;;;;;;4992641;28;20202;-77
2021/04/08 02:08:58;;;;;;;1.67;1.30;;;-0.40;99.90;;;;;;4993936;28;20822;-77
2021/04/08 02:11:25;;;;;;;2.13;1.30;;;-0.30;99.90;;;;;;4993760;28;20490;-77
2021/04/08 02:13:52;;;;;;;3.20;1.53;;;-0.40;99.90;;;;;;4992547;28;20916;-77
2021/04/08 02:16:20;;;;;;;3.90;1.70;;;-0.30;99.90;;;;;;4993541;28;20403;-77
2021/04/08 02:18:48;;;;;;;5.27;1.50;;;-0.30;99.90;;;;;;4993851;28;20414;-77
2021/04/08 02:21:15;;;;;;;3.67;1.50;;;-0.30;99.90;;;;;;4992571;28;20546;-77
2021/04/08 02:23:43;;;;;;;2.03;1.03;;;-0.30;99.90;;;;;;4993841;28;20419;-77
2021/04/08 02:26:12;;;;;;;1.47;1.17;;;-0.30;99.90;;;;;;4992309;28;20423;-77
2021/04/08 02:28:39;;;;;;;5.60;1.30;;;-0.30;99.90;;;;;;4992374;28;20947;-77
2021/04/08 02:31:06;;;;;;;1.87;1.27;;;-0.30;99.90;;;;;;4993796;28;20459;-77
2021/04/08 02:33:32;;;;;;;5.37;1.70;;;-0.30;99.90;;;;;;4993730;28;20419;-77
2021/04/08 02:35:59;;;;;;;1.23;1.03;;;-0.30;99.90;;;;;;4993616;28;20919;-77
2021/04/08 02:38:27;;;;;;;1.97;1.40;;;-0.30;99.90;;;;;;4993797;28;20195;-77
2021/04/08 02:40:54;;;;;;;1.43;1.23;;;-0.20;99.90;;;;;;4995551;28;20485;-77
2021/04/08 02:43:20;;;;;;;1.80;1.30;;;-0.30;99.90;;;;;;4997707;28;20838;-77
2021/04/08 02:45:46;;;;;;;4.17;1.70;;;;;;;;;;4997509;28;20418;-78
2021/04/08 02:48:15;;;;;;;1.83;1.40;;;-0.30;99.90;;;;;;4997670;28;20661;-77
2021/04/08 02:50:42;;;;;;;3.23;1.57;;;-0.20;99.90;;;;;;4997613;28;20490;-77
2021/04/08 02:53:40;;;;;;;7.83;1.63;;;-0.20;99.90;;;;;;4996278;28;20829;-77
2021/04/08 02:56:18;;;;;;;4.53;2.30;;;-0.20;99.90;;;;;;4997034;28;20404;-77
2021/04/08 02:58:46;;;;;;;0.87;0.70;;;-0.20;99.90;;;;;;4997747;28;20400;-78
2021/04/08 03:01:16;;;;;;;4.47;1.43;;;-0.20;99.90;;;;;;4997401;28;20464;-78
2021/04/08 03:03:50;;;;;;;3.50;1.10;;;-0.20;99.90;;;;;;4997679;28;20762;-77
2021/04/08 03:06:17;;;;;;;2.90;1.40;;;-0.20;99.90;;;;;;4999650;28;20852;-77
2021/04/08 03:08:47;;;;;;;2.53;1.30;;;-0.20;99.90;;;;;;5000747;28;20442;-78
2021/04/08 03:11:19;;;;;;;2.93;1.17;;;0.30;99.90;;;;;;5001427;28;20454;-78
2021/04/08 03:13:48;;;;;;;2.57;1.50;;;-0.20;99.90;;;;;;4997849;28;20776;-78
2021/04/08 03:16:21;;;;;;;6.73;1.60;;;-0.20;99.90;;;;;;4996604;28;20460;-77
2021/04/08 03:18:55;;;;;;;1.23;1.00;;;-0.20;99.90;;;;;;4997161;28;20396;-79
2021/04/08 03:21:26;;;;;;;2.53;1.30;;;0.20;99.90;;;;;;4995696;28;20406;-77
2021/04/08 03:23:54;;;;;;;1.37;1.27;;;-0.20;99.90;;;;;;4996870;28;20392;-77
2021/04/08 03:26:22;;;;;;;3.70;1.60;;;-0.10;99.90;;;;;;4995310;28;20452;-77
2021/04/08 03:28:49;;;;;;;1.30;1.20;;;-0.20;99.90;;;;;;4995466;28;20422;-77
2021/04/08 03:31:16;;;;;;;3.23;1.83;;;-0.10;99.90;;;;;;5028086;28;20458;-78
2021/04/08 03:33:43;;;;;;;1.37;1.27;;;-0.10;99.90;;;;;;4996526;28;20447;-78
2021/04/08 03:36:10;;;;;;;2.43;1.40;;;-0.10;99.90;;;;;;4995152;28;20944;-77
2021/04/08 03:38:36;;;;;;;2.03;1.37;;;;;;;;;;4996618;28;20410;-77
2021/04/08 03:41:02;;;;;;;4.43;1.43;;;-0.10;99.90;;;;;;4996560;28;20411;-78
2021/04/08 03:43:28;;;;;;;1.80;1.60;;;-0.10;99.90;;;;;;4997325;28;20410;-78
2021/04/08 03:46:00;;;;;;;1.63;1.30;;;-0.10;99.90;;;;;;4995876;28;20469;-79
2021/04/08 03:48:27;;;;;;;1.97;1.27;;;-0.10;99.90;;;;;;4996394;28;20211;-78
2021/04/08 03:50:54;;;;;;;1.93;1.50;;;-0.10;99.90;;;;;;4995422;28;20454;-77
2021/04/08 03:53:20;;;;;;;1.30;1.20;;;-0.10;99.90;;;;;;4999369;28;20415;-78
2021/04/08 03:55:47;;;;;;;4.33;1.00;;;0.30;99.90;;;;;;4997221;28;20422;-78
2021/04/08 03:58:14;;;;;;;4.40;1.13;;;-0.10;99.90;;;;;;5029325;28;20521;-78
2021/04/08 04:00:40;;;;;;;1.70;1.50;;;1.10;99.90;;;;;;4997706;28;20410;-78
2021/04/08 04:03:14;;;;;;;3.17;1.33;;;0.90;99.90;;;;;;4980782;28;20430;-77
2021/04/08 04:05:42;;;;;;;1.27;1.00;;;-0.10;99.90;;;;;;4998710;28;20399;-77
2021/04/08 04:08:10;;;;;;;1.77;1.37;;;-0.10;99.90;;;;;;4996338;28;20458;-77
2021/04/08 04:10:37;;;;;;;4.10;1.00;;;0.00;99.90;;;;;;4997250;28;20825;-77
2021/04/08 04:13:05;;;;;;;1.23;1.13;;;-0.10;99.90;;;;;;4997574;28;20462;-78
2021/04/08 04:15:36;;;;;;;1.27;1.10;;;-0.10;99.90;;;;;;4998557;28;20417;-78
2021/04/08 04:18:06;;;;;;;1.47;1.37;;;-0.10;99.90;;;;;;4996172;28;20916;-78
2021/04/08 04:20:33;;;;;;;2.33;1.47;;;0.00;99.90;;;;;;4994701;28;20506;-78
2021/04/08 04:22:58;;;;;;;3.67;1.47;;;-0.10;99.90;;;;;;4995542;28;20853;-77
2021/04/08 04:25:24;;;;;;;4.10;1.70;;;;;;;;;;4996110;28;20411;-78
2021/04/08 04:27:50;;;;;;;3.73;1.70;;;-0.10;99.90;;;;;;4995986;28;20199;-78
2021/04/08 04:30:16;;;;;;;3.20;1.33;;;-0.10;99.90;;;;;;4996461;28;20414;-78
2021/04/08 04:32:42;;;;;;;6.90;1.63;;;;;;;;;;4994692;28;20241;-78
2021/04/08 04:35:09;;;;;;;5.97;1.47;;;-0.20;99.90;;;;;;4995754;28;20403;-77
2021/04/08 04:37:34;;;;;;;5.97;2.87;;;-0.20;99.90;;;;;;4996010;28;20187;-78
2021/04/08 04:40:00;;;;;;;7.00;2.97;;;;;;;;;;4995851;28;20408;-78
2021/04/08 04:42:26;;;;;;;15.67;6.63;;;;;;;;;;4995625;28;20194;-78
2021/04/08 04:44:53;;;;;;;10.17;3.67;;;;;;;;;;4995604;28;20407;-77
2021/04/08 04:47:19;;;;;;;27.43;12.53;;;;;;;;;;4995360;28;20477;-77
2021/04/08 04:49:48;;;;;;;5.23;2.70;;;-0.20;99.90;;;;;;4994252;28;20443;-77
2021/04/08 04:52:14;;;;;;;1.50;1.40;;;-0.10;99.90;;;;;;4994245;28;20495;-77
2021/04/08 04:54:39;;;;;;;5.43;1.50;;;-0.20;99.90;;;;;;4995647;28;20411;-77
2021/04/08 04:57:05;;;;;;;2.37;2.13;;;-0.20;99.90;;;;;;4995563;28;20207;-77
2021/04/08 04:59:31;;;;;;;6.77;2.17;;;-0.20;99.90;;;;;;4994415;28;20180;-77
2021/04/08 05:01:57;;;;;;;6.00;2.00;;;-0.20;99.90;;;;;;4995923;28;20176;-78
2021/04/08 05:04:22;;;;;;;2.63;1.70;;;-0.20;99.90;;;;;;4994767;28;20180;-78
2021/04/08 05:06:49;;;;;;;3.17;2.00;;;-0.20;99.90;;;;;;4995558;28;20199;-78
2021/04/08 05:09:14;;;;;;;3.17;1.87;;;-0.10;99.90;;;;;;5026874;28;20183;-78
2021/04/08 05:11:40;;;;;;;4.63;2.10;;;;;;;;;;4995683;28;20465;-78
2021/04/08 05:14:06;;;;;;;3.43;1.67;;;;;;;;;;4995267;28;20178;-77
2021/04/08 05:16:32;;;;;;;2.47;1.60;;;;;;;;;;4995366;28;20554;-77
2021/04/08 05:18:58;;;;;;;7.43;4.03;;;-0.10;99.90;;;;;;4993716;28;20461;-77
2021/04/08 05:21:24;;;;;;;4.73;3.00;;;;;;;;;;4994911;28;20823;-77
2021/04/08 05:23:50;;;;;;;3.83;2.27;;;;;;;;;;4993684;28;20215;-77
2021/04/08 05:26:16;;;;;;;5.10;2.10;;;0.00;99.90;;;;;;4994702;28;20541;-77
2021/04/08 05:28:42;;;;;;;5.93;2.30;;;;;;;;;;4994793;28;20322;-77
2021/04/08 05:31:08;;;;;;;3.10;1.73;;;;;;;;;;4995566;28;20222;-78
2021/04/08 05:33:34;;;;;;;3.67;2.00;;;0.00;99.90;;;;;;4995440;28;20434;-77
2021/04/08 05:36:00;;;;;;;5.37;3.43;;;;;;;;;;4994899;28;20414;-78
2021/04/08 05:38:26;;;;;;;18.17;8.73;;;0.20;99.90;;;;;;4995151;28;20672;-78
2021/04/08 05:40:52;;;;;;;4.90;2.40;;;1.20;99.90;;;;;;4993664;28;20433;-78
2021/04/08 05:43:17;;;;;;;22.47;13.10;;;0.10;99.90;;;;;;4995057;28;20415;-77
2021/04/08 05:45:45;;;;;;;3.40;1.70;;;0.10;99.90;;;;;;4995011;28;20220;-78
2021/04/08 05:48:14;;;;;;;9.00;5.73;;;0.20;99.90;;;;;;4995740;28;20198;-77
2021/04/08 05:50:41;;;;;;;4.50;3.00;;;0.10;99.90;;;;;;4995309;28;20552;-78
2021/04/08 05:53:06;;;;;;;4.20;2.20;;;0.10;99.90;;;;;;4995376;28;20729;-78
2021/04/08 05:55:32;;;;;;;2.23;1.77;;;0.20;99.90;;;;;;5027661;28;20415;-78
2021/04/08 05:57:58;;;;;;;2.20;1.70;;;;;;;;;;4994418;28;20635;-78
2021/04/08 06:00:24;;;;;;;4.03;1.50;;;;;;;;;;4995043;28;20536;-78
2021/04/08 06:02:50;;;;;;;2.87;1.80;;;0.20;99.90;;;;;;4996211;28;20184;-78
2021/04/08 06:05:16;;;;;;;1.60;1.50;;;0.20;99.90;;;;;;4994876;28;20437;-78
2021/04/08 06:07:42;;;;;;;2.47;1.20;;;0.20;99.90;;;;;;4995933;28;20195;-78
2021/04/08 06:10:09;;;;;;;4.50;1.90;;;0.10;99.90;;;;;;4994816;28;20261;-78
2021/04/08 06:12:35;;;;;;;3.37;2.00;;;0.20;99.90;;;;;;4995896;28;20488;-77
2021/04/08 06:15:00;;;;;;;2.13;1.23;;;0.60;99.90;;;;;;4996371;28;20753;-78
2021/04/08 06:17:26;;;;;;;3.90;1.80;;;0.30;99.90;;;;;;5000374;28;20661;-78
2021/04/08 06:19:52;;;;;;;3.33;2.50;;;0.40;99.90;;;;;;4999628;28;20178;-78
2021/04/08 06:22:18;;;;;;;3.17;1.60;;;0.40;99.90;;;;;;4999562;28;20176;-78
2021/04/08 06:24:44;;;;;;;1.83;1.50;;;0.70;99.90;;;;;;5000279;28;20180;-78
2021/04/08 06:27:09;;;;;;;1.53;1.43;;;0.50;99.90;;;;;;5000287;28;20230;-78
2021/04/08 06:29:35;;;;;;;3.63;1.60;;;0.90;99.90;;;;;;5003039;28;20238;-79
2021/04/08 06:32:01;;;;;;;1.57;1.27;;;0.90;99.90;;;;;;5033467;28;20270;-78
2021/04/08 06:34:28;;;;;;;4.10;2.57;;;0.60;99.90;;;;;;5003336;28;20179;-78
2021/04/08 06:36:54;;;;;;;2.53;2.13;;;0.70;99.90;;;;;;5002367;28;20951;-78
2021/04/08 06:39:20;;;;;;;4.53;1.53;;;0.80;99.90;;;;;;5003532;28;20422;-78
2021/04/08 06:41:46;;;;;;;3.00;1.70;;;0.90;99.90;;;;;;5002525;28;20179;-78
2021/04/08 06:44:15;;;;;;;4.63;1.43;;;1.00;99.90;;;;;;5001329;28;20176;-79
2021/04/08 06:46:43;;;;;;;8.50;2.67;;;1.00;99.90;;;;;;5001148;28;20461;-78
2021/04/08 06:49:23;;;;;;;3.67;1.97;;;0.80;99.90;;;;;;5001261;28;20924;-78
2021/04/08 06:51:57;;;;;;;2.63;1.90;;;1.00;99.90;;;;;;5000425;28;20454;-78
2021/04/08 06:54:24;;;;;;;3.73;2.47;;;1.10;99.90;;;;;;5000811;28;20420;-78
2021/04/08 06:56:50;;;;;;;5.20;2.57;;;1.10;99.90;;;;;;5001031;28;20500;-78
2021/04/08 06:59:16;;;;;;;4.10;2.17;;;1.20;99.90;;;;;;5001613;28;20440;-78
2021/04/08 07:01:44;;;;;;;7.43;1.80;;;1.30;99.90;;;;;;4999245;28;20430;-78
2021/04/08 07:04:11;;;;;;;5.20;2.70;;;1.30;99.90;;;;;;5032307;28;20265;-78
2021/04/08 07:06:37;;;;;;;5.33;2.10;;;1.20;99.90;;;;;;4999198;28;20448;-78
2021/04/08 07:09:05;;;;;;;7.57;3.60;;;1.30;99.90;;;;;;4998929;28;20417;-78
2021/04/08 07:11:32;;;;;;;5.77;3.70;;;1.40;99.90;;;;;;5000841;28;20836;-78
2021/04/08 07:13:59;;;;;;;5.40;2.57;;;1.40;99.90;;;;;;5000643;28;20828;-78
2021/04/08 07:16:25;;;;;;;2.20;2.00;;;1.40;99.90;;;;;;5002130;28;20464;-78
2021/04/08 07:18:53;;;;;;;1.63;1.43;;;1.40;99.90;;;;;;5001977;28;20414;-78
2021/04/08 07:21:18;;;;;;;3.40;2.17;;;1.40;99.90;;;;;;5001926;28;20191;-79
2021/04/08 07:24:14;;;;;;;5.93;2.30;;;1.30;99.90;;;;;;5001708;28;20765;-79
2021/04/08 07:26:52;;;;;;;6.60;4.67;;;1.40;99.90;;;;;;5000786;28;20195;-79
2021/04/08 07:29:19;;;;;;;3.70;2.30;;;1.50;99.90;;;;;;5000678;28;20472;-78
2021/04/08 07:31:45;;;;;;;5.50;2.60;;;1.60;99.90;;;;;;5001323;28;20488;-79
2021/04/08 07:34:11;;;;;;;5.83;3.67;;;1.60;99.90;;;;;;5001519;28;20518;-78
2021/04/08 07:36:39;;;;;;;4.20;2.00;;;1.60;99.90;;;;;;5002877;28;20254;-79
2021/04/08 07:39:14;;;;;;;6.93;3.33;;;1.60;99.90;;;;;;5001678;28;20175;-79
2021/04/08 07:41:40;;;;;;;5.33;3.30;;;1.70;99.90;;;;;;5000749;28;20418;-79
2021/04/08 07:44:08;;;;;;;5.87;3.40;;;1.70;99.90;;;;;;5001767;28;20410;-79
2021/04/08 07:46:41;;;;;;;7.87;4.37;;;1.70;99.90;;;;;;5001277;28;20493;-78
2021/04/08 07:49:26;;;;;;;4.10;3.40;;;1.90;99.90;;;;;;4999011;28;20962;-78
2021/04/08 07:51:51;;;;;;;5.77;2.40;;;2.00;99.90;;;;;;4997574;28;20478;-78
2021/04/08 07:54:18;;;;;;;5.30;3.03;;;1.90;99.90;;;;;;4999252;28;20411;-78
2021/04/08 07:56:45;;;;;;;5.87;2.90;;;1.90;99.90;;;;;;4997714;28;20215;-79
2021/04/08 07:59:21;;;;;;;5.60;2.70;;;1.90;99.90;;;;;;4999067;28;20422;-79
2021/04/08 08:01:51;;;;;;;6.27;3.27;;;1.80;99.90;;;;;;4998047;28;20942;-78
2021/04/08 08:04:25;;;;;;;4.50;2.40;;;1.90;99.90;;;;;;5028867;28;20509;-78
2021/04/08 08:06:52;;;;;;;5.97;2.80;;;2.00;99.90;;;;;;4996927;28;20442;-78
2021/04/08 08:09:29;;;;;;;4.37;2.17;;;2.20;99.90;;;;;;4996997;28;20813;-78
2021/04/08 08:11:57;;;;;;;6.37;2.00;;;2.20;99.90;;;;;;4995973;28;20813;-78
2021/04/08 08:14:34;;;;;;;3.60;2.20;;;2.30;99.90;;;;;;4995361;28;20419;-78
2021/04/08 08:17:15;;;;;;;5.27;2.90;;;2.40;99.90;;;;;;4996760;28;20434;-78
2021/04/08 08:19:48;;;;;;;5.67;2.97;;;3.00;99.90;;;;;;4995489;28;20553;-78
2021/04/08 08:22:23;;;;;;;2.37;2.13;;;3.80;99.90;;;;;;4996778;28;20472;-78
2021/04/08 08:24:59;;;;;;;5.07;2.20;;;4.50;99.90;;;;;;4995320;28;20426;-78
2021/04/08 08:27:47;;;;;;;4.40;2.50;;;4.40;99.90;;;;;;4997372;28;20430;-78
2021/04/08 08:30:16;;;;;;;4.23;2.57;;;3.40;99.90;;;;;;4997361;28;20418;-78
2021/04/08 08:33:15;;;;;;;4.77;2.50;;;2.80;99.90;;;;;;4998360;28;20230;-78
2021/04/08 08:35:41;;;;;;;6.00;2.70;;;2.50;99.90;;;;;;4997047;28;20443;-78
2021/04/08 08:38:14;;;;;;;4.00;2.33;;;2.40;99.90;;;;;;4997738;28;20450;-78
2021/04/08 08:40:41;;;;;;;3.70;2.00;;;3.10;99.90;;;;;;4997553;28;20263;-79
2021/04/08 08:43:08;;;;;;;3.27;2.17;;;4.40;99.90;;;;;;4996839;28;20211;-79
2021/04/08 08:45:35;;;;;;;4.23;2.77;;;5.00;99.90;;;;;;4996489;28;20858;-77
2021/04/08 08:48:15;;;;;;;4.53;2.40;;;5.90;99.90;;;;;;4996284;28;20427;-77
2021/04/08 08:50:43;;;;;;;3.97;3.07;;;6.40;98.10;;;;;;4996158;28;20178;-78
2021/04/08 08:53:10;;;;;;;3.73;2.23;;;6.40;95.70;;;;;;4996280;28;20213;-77
2021/04/08 08:55:37;;;;;;;3.50;2.23;;;6.40;94.90;;;;;;4994675;28;20195;-77
2021/04/08 08:58:05;;;;;;;4.93;2.70;;;6.50;94.20;;;;;;4996025;28;20588;-77
2021/04/08 09:00:31;;;;;;;4.93;2.80;;;6.40;95.90;;;;;;4999061;28;20186;-77
2021/04/08 09:02:58;;;;;;;4.00;2.53;;;6.20;94.50;;;;;;4995203;28;20189;-77
2021/04/08 09:05:28;;;;;;;3.97;2.50;;;6.70;94.90;;;;;;4995745;28;20647;-77
2021/04/08 09:07:58;;;;;;;4.40;2.43;;;6.40;94.60;;;;;;4995418;28;20607;-77
2021/04/08 09:10:33;;;;;;;3.83;3.03;;;6.50;95.40;;;;;;4999981;28;20547;-77
2021/04/08 09:13:00;;;;;;;3.57;2.20;;;6.70;95.70;;;;;;5003029;28;20167;-77
2021/04/08 09:15:26;;;;;;;5.70;2.80;;;7.10;94.70;;;;;;5007193;28;20185;-76
2021/04/08 09:17:56;;;;;;;3.70;2.30;;;7.00;93.60;;;;;;5009712;28;20191;-78
2021/04/08 09:20:22;;;;;;;5.70;2.37;;;6.80;93.90;;;;;;5002360;28;20170;-76
2021/04/08 09:23:03;;;;;;;3.60;2.33;;;7.30;95.00;;;;;;4995690;28;20182;-77
2021/04/08 09:25:32;;;;;;;3.93;1.83;;;6.70;90.60;;;;;;5026613;28;20178;-77
2021/04/08 09:28:03;;;;;;;4.63;2.40;;;5.80;91.30;;;;;;4995228;28;20191;-77
2021/04/08 09:30:41;;;;;;;4.57;2.30;;;5.60;92.20;;;;;;4993891;28;20176;-77
2021/04/08 09:33:07;;;;;;;3.13;2.27;;;5.70;92.70;;;;;;4993881;28;20167;-78
2021/04/08 09:35:33;;;;;;;4.83;2.83;;;6.40;92.80;;;;;;4994976;28;20540;-77
2021/04/08 09:38:02;;;;;;;5.07;2.70;;;6.80;94.40;;;;;;4995034;28;20697;-78
2021/04/08 09:40:35;;;;;;;4.33;3.10;;;6.70;92.10;;;;;;4994895;28;20179;-77
2021/04/08 09:43:12;;;;;;;7.33;3.47;;;7.00;92.00;;;;;;4994971;28;20168;-77
2021/04/08 09:45:52;;;;;;;4.53;2.70;;;7.70;91.60;;;;;;4995048;28;20161;-77
2021/04/08 09:48:21;;;;;;;4.20;3.27;;;7.10;90.40;;;;;;4994745;28;20198;-76
2021/04/08 09:51:01;;;;;;;4.33;2.63;;;6.90;90.70;;;;;;4995176;28;20249;-77
2021/04/08 09:53:38;;;;;;;3.80;2.80;;;6.40;90.90;;;;;;4994850;28;20723;-77
2021/04/08 09:56:06;;;;;;;4.27;3.10;;;5.80;90.50;;;;;;4994873;28;20160;-76
2021/04/08 09:58:35;;;;;;;5.60;3.80;;;5.10;91.60;;;;;;4995136;28;20252;-77
2021/04/08 10:01:05;;;;;;;5.13;3.23;;;4.80;92.60;;;;;;4994813;28;20175;-77
2021/04/08 10:03:39;;;;;;;5.63;2.90;;;4.80;94.50;;;;;;4994804;28;20579;-77
2021/04/08 10:06:21;;;;;;;6.00;3.03;;;4.40;95.30;;;;;;4995113;28;20533;-78
2021/04/08 10:08:48;;;;;;;4.97;3.20;;;4.00;96.40;;;;;;4995250;28;20167;-77
2021/04/08 10:11:15;;;;;;;4.93;3.00;;;3.80;96.90;;;;;;4993113;28;20208;-77
2021/04/08 10:13:41;;;;;;;4.77;3.10;;;3.60;97.40;;;;;;4994471;28;20180;-77
2021/04/08 10:16:16;;;;;;;4.37;3.60;;;3.60;97.80;;;;;;4993999;28;20175;-77
2021/04/08 10:18:44;;;;;;;7.47;3.20;;;3.60;98.90;;;;;;4993349;28;20175;-77
2021/04/08 10:21:15;;;;;;;4.37;3.40;;;3.70;98.30;;;;;;4995101;28;20561;-77
2021/04/08 10:23:43;;;;;;;4.00;3.17;;;3.70;99.80;;;;;;4994622;28;20192;-77
2021/04/08 10:26:14;;;;;;;9.97;3.87;;;3.80;99.30;;;;;;4992420;28;20720;-77
2021/04/08 10:28:52;;;;;;;4.37;3.67;;;3.70;98.60;;;;;;4992939;28;20596;-77
2021/04/08 10:31:26;;;;;;;4.67;3.23;;;3.70;99.80;;;;;;4993945;28;20270;-77
2021/04/08 10:33:52;;;;;;;5.33;4.00;;;3.80;99.00;;;;;;4993930;28;20578;-77
2021/04/08 10:36:28;;;;;;;6.43;3.47;;;3.90;99.30;;;;;;4992458;28;20180;-77
2021/04/08 10:39:25;;;;;;;6.17;4.03;;;4.20;99.90;;;;;;4993961;28;20642;-77
2021/04/08 10:41:59;;;;;;;6.17;3.50;;;4.20;99.00;;;;;;4994157;28;20402;-77
2021/04/08 10:44:26;;;;;;;3.87;3.40;;;4.00;97.60;;;;;;4992538;28;20629;-77
2021/04/08 10:46:53;;;;;;;5.73;3.00;;;4.00;97.30;;;;;;4993918;28;20195;-77
2021/04/08 10:49:24;;;;;;;4.77;3.00;;;3.90;96.70;;;;;;4993943;28;20172;-77
2021/04/08 10:51:51;;;;;;;3.53;2.97;;;3.80;95.60;;;;;;4992553;28;20196;-77
2021/04/08 10:54:16;;;;;;;6.63;3.20;;;3.60;95.90;;;;;;4986679;28;20177;-77
2021/04/08 10:56:47;;;;;;;8.07;3.10;;;3.70;95.40;;;;;;4991300;28;20457;-77
2021/04/08 10:59:18;;;;;;;6.03;3.57;;;3.80;95.30;;;;;;4991400;28;20239;-77
2021/04/08 11:01:44;;;;;;;4.07;3.00;;;4.10;96.00;;;;;;4993569;28;20783;-77
2021/04/08 11:04:10;;;;;;;4.50;3.40;;;4.20;95.30;;;;;;4997202;28;20415;-77
2021/04/08 11:06:36;;;;;;;3.43;2.90;;;4.30;95.00;;;;;;4997674;28;20192;-77
2021/04/08 11:09:02;;;;;;;3.63;2.83;;;4.90;95.70;;;;;;4997658;28;20168;-77
2021/04/08 11:11:27;;;;;;;5.83;3.00;;;6.20;93.70;;;;;;4998060;28;20200;-78
2021/04/08 11:13:53;;;;;;;3.20;2.90;;;6.60;91.80;;;;;;5001143;28;20217;-78
2021/04/08 11:16:19;;;;;;;4.40;2.90;;;6.70;91.80;;;;;;5009688;28;20180;-77
2021/04/08 11:18:45;;;;;;;3.53;2.27;;;6.60;91.30;;;;;;5015236;28;20560;-78
2021/04/08 11:21:11;;;;;;;3.43;2.57;;;6.30;88.80;;;;;;5015492;28;20210;-77
2021/04/08 11:23:37;;;;;;;3.17;2.00;;;5.90;88.80;;;;;;5031815;28;20217;-77
2021/04/08 11:26:05;;;;;;;4.67;2.80;;;6.10;91.20;;;;;;5015307;28;20588;-77
2021/04/08 11:28:33;;;;;;;4.33;2.67;;;6.40;90.80;;;;;;4999163;28;20203;-77
2021/04/08 11:31:09;;;;;;;4.70;2.23;;;6.50;88.70;;;;;;4978448;28;20212;-77
2021/04/08 11:33:35;;;;;;;3.10;2.47;;;6.30;86.80;;;;;;4995897;28;20280;-77
2021/04/08 11:36:01;;;;;;;4.00;2.50;;;6.20;90.10;;;;;;5011520;28;20172;-77
2021/04/08 11:38:35;;;;;;;4.33;2.50;;;7.00;87.20;;;;;;4996983;28;20194;-77
2021/04/08 11:41:00;;;;;;;6.20;4.63;;;6.30;83.30;;;;;;4996819;28;20166;-77
2021/04/08 11:43:28;;;;;;;8.37;5.07;;;5.80;86.90;;;;;;4996700;28;20186;-78
2021/04/08 11:45:55;;;;;;;13.37;7.90;;;5.70;86.60;;;;;;4996417;28;20180;-77
2021/04/08 11:48:22;;;;;;;3.63;2.90;;;5.70;90.20;;;;;;4996705;28;20192;-77
2021/04/08 11:50:49;;;;;;;5.50;3.30;;;5.70;84.30;;;;;;4995506;28;20248;-77
2021/04/08 11:53:31;;;;;;;5.93;3.03;;;5.70;86.50;;;;;;4995461;28;20255;-77
2021/04/08 11:55:56;;;;;;;3.50;2.70;;;5.70;85.30;;;;;;4995298;28;20176;-77
2021/04/08 11:58:30;;;;;;;4.70;2.73;;;5.70;84.40;;;;;;4995743;28;20215;-78
2021/04/08 12:01:13;;;;;;;4.23;3.27;;;5.80;83.90;;;;;;4998378;28;20205;-76
2021/04/08 12:03:44;;;;;;;5.13;2.90;;;5.90;87.40;;;;;;4999754;28;20177;-77
2021/04/08 12:06:11;;;;;;;6.50;2.70;;;5.70;83.80;;;;;;5009040;28;20191;-77
2021/04/08 12:08:43;;;;;;;4.20;2.80;;;5.60;86.00;;;;;;4980913;28;20235;-77
2021/04/08 12:11:09;;;;;;;5.37;2.97;;;5.50;85.90;;;;;;4976101;28;20297;-78
2021/04/08 12:13:37;;;;;;;3.87;2.90;;;5.60;85.50;;;;;;4978170;28;20184;-76
2021/04/08 12:16:05;;;;;;;5.20;2.57;;;5.60;85.70;;;;;;4996481;28;20184;-77
2021/04/08 12:18:31;;;;;;;4.50;2.73;;;5.50;84.40;;;;;;4995046;28;20201;-77
2021/04/08 12:21:07;;;;;;;3.80;2.30;;;5.60;84.60;;;;;;4996706;28;20191;-77
2021/04/08 12:23:35;;;;;;;5.77;2.97;;;5.70;84.40;;;;;;4996579;28;20243;-78
2021/04/08 12:26:01;;;;;;;4.93;2.70;;;5.80;86.50;;;;;;4995485;28;20664;-77
2021/04/08 12:28:27;;;;;;;3.03;2.40;;;6.10;87.40;;;;;;4996447;28;20219;-78
2021/04/08 12:31:00;;;;;;;4.53;2.73;;;6.50;82.30;;;;;;4995082;28;20264;-77
2021/04/08 12:33:35;;;;;;;3.83;2.90;;;6.60;81.80;;;;;;4996711;28;20154;-77
2021/04/08 12:36:10;;;;;;;4.40;2.77;;;6.80;83.10;;;;;;4995913;28;20173;-77
2021/04/08 12:38:36;;;;;;;3.10;2.77;;;6.70;81.50;;;;;;4996237;28;20163;-77
2021/04/08 12:41:04;;;;;;;2.77;2.30;;;6.80;79.00;;;;;;4995781;28;20183;-76
2021/04/08 12:43:31;;;;;;;3.63;2.30;;;6.50;81.10;;;;;;4995928;28;20178;-76
2021/04/08 12:45:57;;;;;;;4.03;2.67;;;6.40;80.00;;;;;;4994320;28;20232;-77
2021/04/08 12:48:23;;;;;;;5.80;1.93;;;7.30;81.10;;;;;;4995937;28;20720;-77
2021/04/08 12:50:50;;;;;;;3.63;2.30;;;7.80;73.60;;;;;;4995688;28;20242;-77
2021/04/08 12:53:17;;;;;;;3.47;2.13;;;7.20;72.90;;;;;;4995564;28;20191;-77
2021/04/08 12:55:43;;;;;;;3.63;2.43;;;6.90;73.50;;;;;;5010583;28;20189;-77
2021/04/08 12:58:09;;;;;;;2.93;2.60;;;6.40;75.00;;;;;;4995941;28;20260;-77
2021/04/08 13:00:38;;;;;;;4.33;2.80;;;6.30;82.50;;;;;;4994558;28;20179;-77
2021/04/08 13:03:05;;;;;;;4.37;2.40;;;6.50;81.00;;;;;;4995095;28;20307;-76
2021/04/08 13:05:31;;;;;;;2.50;2.30;;;7.00;77.90;;;;;;4995247;28;20700;-76
2021/04/08 13:07:57;;;;;;;4.93;2.90;;;6.90;76.00;;;;;;4995112;28;20206;-77
2021/04/08 13:10:23;;;;;;;2.73;2.43;;;6.80;77.00;;;;;;4995004;28;20270;-77